Terminal Aerodrome Forecast
Issued by NWS

Home | Current Version | Previous Version | Graphics & Text | Print | Product List | Glossary Off
Versions: 1 2 3 4 5 6 7 8 9 10 11 12 13 14 15 16 17 18 19 20 21 22 23 24 25 26 27

000
FTUS43 KDDC 270543
TAFHYS
TAF
KHYS 270543Z 2706/2806 33025G30KT 5SM TSRA BKN050CB
     FM270700 33014KT P6SM -RA VCTS BKN080CB
     FM270900 13009KT P6SM BKN250
     FM271500 17017G24KT P6SM SKC PROB30 2804/2806 P6SM TSRA
      BKN050CB=

USA.gov is the U.S. government's official web portal to all federal, state and local government web resources and services.